首页
METAR-TAF:

METAR-TAF

机场 :

邁杜古里, 尼日利亚

纬度: 11-51N, 经度: 013-05E, 海拔: 354米

METAR: 丢失

时间: 22:26 (21:26 UTC)

预报

该预报发布于4小时和26分钟前的17:00 UTC
预报有效从23日的 18点(UTC)到 24日的 24点(UTC)
风速7节,风向南转西南
能见度10公里或以上
散云层高于1300英尺
短暂存在
从 23日的 18点(UTC)到 23日的 24点(UTC)
多云层高于1000英尺
少量云层高于1900英尺, 积雨云.
雷暴,

TAF: DNMA 231700Z 2318/2424 21007KT 9999 SCT013 TEMPO 2318/2324 TS BKN010 FEW019CB

超过4000个机场的气象观测和天气预报(METAR&TAF报告)。

可查询的气象台以黄色和红色小点在地图上表示。

将鼠标移到小点上方,可查看气象台名称。

然后点击查看天气观测和预报。

如需切换地图:点击带黑十字的绿色按钮放大地图;点击带横线的绿色按钮缩小地图;或者点击绿色箭头查看邻近地区的地图。


METAR-TAF: